createdAt,value
2019-05-03T00:00:28.211Z,15.50
2019-05-03T00:02:58.429Z,16.15
2019-05-03T00:05:28.749Z,18.17
2019-05-03T00:08:02.031Z,18.37
2019-05-03T00:10:31.769Z,18.02
2019-05-03T00:13:01.908Z,18.25
2019-05-03T00:15:32.412Z,17.60
2019-05-03T00:18:02.340Z,19.40
2019-05-03T00:20:32.621Z,16.62
2019-05-03T00:23:02.933Z,17.62
2019-05-03T00:25:32.635Z,19.37
2019-05-03T00:28:01.881Z,19.42
2019-05-03T00:30:31.994Z,19.00
2019-05-03T00:33:02.712Z,15.93
2019-05-03T00:35:48.074Z,16.45
2019-05-03T00:38:16.920Z,17.92
2019-05-03T00:40:45.513Z,19.82
2019-05-03T00:43:14.129Z,16.25
2019-05-03T00:45:42.709Z,15.50
2019-05-03T00:48:12.393Z,16.80
2019-05-03T00:50:42.540Z,17.87
2019-05-03T00:53:11.721Z,16.05
2019-05-03T00:55:41.985Z,15.98
2019-05-03T00:58:11.782Z,15.35
2019-05-03T01:00:41.769Z,14.50
2019-05-03T01:03:12.421Z,16.52
2019-05-03T01:05:42.333Z,17.37
2019-05-03T01:08:12.704Z,15.43
2019-05-03T01:10:42.150Z,17.45
2019-05-03T01:13:12.363Z,15.08
2019-05-03T01:15:45.596Z,15.23
2019-05-03T01:18:15.867Z,15.88
2019-05-03T01:20:44.449Z,15.48
2019-05-03T01:23:13.035Z,13.83
2019-05-03T01:25:42.893Z,16.25
2019-05-03T01:28:12.261Z,15.08
2019-05-03T01:30:42.474Z,13.30
2019-05-03T01:33:32.128Z,15.20
2019-05-03T01:36:02.703Z,12.95
2019-05-03T01:38:31.929Z,14.90
2019-05-03T01:41:01.704Z,14.93
2019-05-03T01:43:31.775Z,16.23
2019-05-03T01:46:02.512Z,14.78
2019-05-03T01:48:35.214Z,19.05
2019-05-03T01:51:17.215Z,14.35
2019-05-03T01:53:46.203Z,18.70
2019-05-03T01:56:14.781Z,15.03
2019-05-03T01:58:43.365Z,18.27
2019-05-03T02:01:13.623Z,18.07
2019-05-03T02:03:49.784Z,18.65
2019-05-03T02:08:46.984Z,18.65
2019-05-03T02:11:15.562Z,15.75
2019-05-03T02:13:44.143Z,17.10
2019-05-03T02:16:12.783Z,16.60
2019-05-03T02:18:42.387Z,15.13
2019-05-03T02:21:12.239Z,15.50
2019-05-03T02:23:42.589Z,14.87
2019-05-03T02:26:11.760Z,17.40
2019-05-03T02:28:42.186Z,15.08
2019-05-03T02:31:13.396Z,17.73
2019-05-03T02:33:43.162Z,16.60
2019-05-03T02:36:13.693Z,17.73
2019-05-03T02:38:42.903Z,17.42
2019-05-03T02:41:13.526Z,16.75
2019-05-03T02:43:45.229Z,17.05
2019-05-03T02:46:18.494Z,19.02
2019-05-03T02:48:51.428Z,15.65
2019-05-03T02:51:19.998Z,18.55
2019-05-03T02:53:48.607Z,18.23
2019-05-03T02:56:22.128Z,17.50
2019-05-03T02:58:47.409Z,18.65
2019-05-03T03:01:16.480Z,19.67
2019-05-03T03:03:45.904Z,16.50
2019-05-03T03:06:17.508Z,17.45
2019-05-03T03:08:48.508Z,15.55
2019-05-03T03:11:19.824Z,18.52
2019-05-03T03:13:50.593Z,18.12
2019-05-03T03:16:21.214Z,19.27
2019-05-03T03:18:55.677Z,18.55
2019-05-03T03:21:26.022Z,16.97
2019-05-03T03:24:09.634Z,19.05
2019-05-03T03:26:43.143Z,21.73
2019-05-03T03:29:11.852Z,18.82
2019-05-03T03:31:48.160Z,16.12
2019-05-03T03:34:18.650Z,19.35
2019-05-03T03:37:00.770Z,17.85
2019-05-03T03:39:21.331Z,17.73
2019-05-03T03:41:50.568Z,22.93
2019-05-03T03:44:20.616Z,17.87
2019-05-03T03:46:52.401Z,17.90
2019-05-03T03:49:21.925Z,20.08
2019-05-03T03:51:56.095Z,17.65
2019-05-03T03:54:25.799Z,20.27
2019-05-03T03:57:03.941Z,17.27
2019-05-03T03:59:27.160Z,18.98
2019-05-03T04:01:55.940Z,23.15
2019-05-03T04:04:26.087Z,20.52
2019-05-03T04:07:00.524Z,19.92
2019-05-03T04:09:26.013Z,22.65
2019-05-03T04:11:56.788Z,19.23
2019-05-03T04:14:28.053Z,18.50
2019-05-03T04:16:58.816Z,19.65
2019-05-03T04:19:38.406Z,22.55
2019-05-03T04:22:07.229Z,18.40
2019-05-03T04:24:35.888Z,18.45
2019-05-03T04:27:18.038Z,20.17
2019-05-03T04:29:38.553Z,22.30
2019-05-03T04:32:09.129Z,21.05
2019-05-03T04:34:37.917Z,17.60
2019-05-03T04:37:06.744Z,20.02
2019-05-03T04:39:36.057Z,18.48
2019-05-03T04:42:06.700Z,19.80
2019-05-03T04:44:36.088Z,17.80
2019-05-03T04:47:06.781Z,19.50
2019-05-03T04:49:36.256Z,16.80
2019-05-03T04:52:05.819Z,21.60
2019-05-03T04:54:44.938Z,18.37
2019-05-03T04:57:12.461Z,19.07
2019-05-03T04:59:41.004Z,18.20
2019-05-03T05:02:09.604Z,20.00
2019-05-03T05:04:38.164Z,19.12
2019-05-03T05:07:06.648Z,21.97
2019-05-03T05:09:35.204Z,22.75
2019-05-03T05:12:05.726Z,19.65
2019-05-03T05:14:35.282Z,21.97
2019-05-03T05:17:06.067Z,22.70
2019-05-03T05:19:36.612Z,20.48
2019-05-03T05:22:09.546Z,20.37
2019-05-03T05:24:38.192Z,23.30
2019-05-03T05:27:20.344Z,17.82
2019-05-03T05:29:48.797Z,21.77
2019-05-03T05:32:17.258Z,21.70
2019-05-03T05:34:46.049Z,21.65
2019-05-03T05:37:14.674Z,23.45
2019-05-03T05:39:44.715Z,23.95
2019-05-03T05:42:14.931Z,23.35
2019-05-03T05:44:45.239Z,25.65
2019-05-03T05:47:31.623Z,29.48
2019-05-03T05:50:01.805Z,41.98
2019-05-03T05:52:30.265Z,35.08
2019-05-03T05:55:00.411Z,29.85
2019-05-03T05:57:30.512Z,33.98
2019-05-03T06:00:00.608Z,24.72
2019-05-03T06:02:29.119Z,23.67
2019-05-03T06:04:57.648Z,23.25
2019-05-03T06:07:44.371Z,24.80
2019-05-03T06:10:21.157Z,23.45
2019-05-03T06:12:54.653Z,24.10
2019-05-03T06:15:40.131Z,34.43
2019-05-03T06:18:10.263Z,24.20
2019-05-03T06:20:40.362Z,27.32
2019-05-03T06:23:14.454Z,24.35
2019-05-03T06:25:45.310Z,25.48
2019-05-03T06:28:20.125Z,20.40
2019-05-03T06:30:55.941Z,22.90
2019-05-03T06:33:24.589Z,23.70
2019-05-03T06:35:54.701Z,21.82
2019-05-03T06:38:24.410Z,22.77
2019-05-03T06:40:54.414Z,21.97
2019-05-03T06:43:24.458Z,23.20
2019-05-03T06:45:54.793Z,19.62
2019-05-03T06:48:28.017Z,20.20
2019-05-03T06:50:55.650Z,23.57
2019-05-03T06:53:25.439Z,21.35
2019-05-03T06:55:55.413Z,20.00
2019-05-03T06:58:31.305Z,19.60
2019-05-03T07:00:55.876Z,25.00
2019-05-03T07:03:28.668Z,19.07
2019-05-03T07:06:17.357Z,20.77
2019-05-03T07:08:47.532Z,24.43
2019-05-03T07:11:15.983Z,20.37
2019-05-03T07:13:44.941Z,19.75
2019-05-03T07:16:14.968Z,20.43
2019-05-03T07:18:45.509Z,19.73
2019-05-03T07:21:15.228Z,25.52
2019-05-03T07:23:45.088Z,19.37
2019-05-03T07:26:15.086Z,16.32
2019-05-03T07:28:47.748Z,16.25
2019-05-03T07:31:15.120Z,17.73
2019-05-03T07:33:44.641Z,23.45
2019-05-03T07:36:15.253Z,20.27
2019-05-03T07:38:45.242Z,20.00
2019-05-03T07:41:14.885Z,18.45
2019-05-03T07:43:45.062Z,20.45
2019-05-03T07:46:14.727Z,17.42
2019-05-03T07:48:45.563Z,20.77
2019-05-03T07:51:14.452Z,16.35
2019-05-03T07:53:45.082Z,17.30
2019-05-03T07:56:15.479Z,17.60
2019-05-03T07:58:59.062Z,14.83
2019-05-03T08:01:36.120Z,15.65
2019-05-03T08:04:05.803Z,20.57
2019-05-03T08:06:34.701Z,16.23
2019-05-03T08:09:05.855Z,19.60
2019-05-03T08:11:35.181Z,21.62
2019-05-03T08:14:05.461Z,20.17
2019-05-03T08:16:35.255Z,17.27
2019-05-03T08:19:04.994Z,14.98
2019-05-03T08:21:37.732Z,11.70
2019-05-03T08:24:04.574Z,13.55
2019-05-03T08:26:35.077Z,15.70
2019-05-03T08:29:15.333Z,12.90
2019-05-03T08:31:45.464Z,11.93
2019-05-03T08:34:25.734Z,11.03
2019-05-03T08:36:58.775Z,9.80
2019-05-03T08:39:27.231Z,14.05
2019-05-03T08:41:57.327Z,10.38
2019-05-03T08:44:26.564Z,12.18
2019-05-03T08:46:56.399Z,11.95
2019-05-03T08:49:25.465Z,10.58
2019-05-03T08:51:54.961Z,10.45
2019-05-03T08:54:25.559Z,11.50
2019-05-03T08:56:55.724Z,17.02
2019-05-03T08:59:31.493Z,10.80
2019-05-03T09:01:55.153Z,9.85
2019-05-03T09:04:36.057Z,14.23
2019-05-03T09:06:55.103Z,10.58
2019-05-03T09:09:31.570Z,12.05
2019-05-03T09:12:00.092Z,11.10
2019-05-03T09:14:41.387Z,10.15
2019-05-03T09:16:59.007Z,14.58
2019-05-03T09:19:27.500Z,10.75
2019-05-03T09:21:55.956Z,10.18
2019-05-03T09:24:24.676Z,9.70
2019-05-03T09:26:55.431Z,11.03
2019-05-03T09:29:25.413Z,6.42
2019-05-03T09:31:55.440Z,9.63
2019-05-03T09:34:25.675Z,16.40
2019-05-03T09:36:55.358Z,15.30
2019-05-03T09:39:24.530Z,12.40
2019-05-03T09:41:55.333Z,14.05
2019-05-03T09:44:24.471Z,14.87
2019-05-03T09:46:55.002Z,12.05
2019-05-03T09:49:25.324Z,7.22
2019-05-03T09:51:54.781Z,12.98
2019-05-03T09:54:30.913Z,10.65
2019-05-03T09:57:00.018Z,12.73
2019-05-03T09:59:29.317Z,11.73
2019-05-03T10:01:58.554Z,14.20
2019-05-03T10:04:27.084Z,11.78
2019-05-03T10:06:55.680Z,17.73
2019-05-03T10:09:26.063Z,11.50
2019-05-03T10:11:55.143Z,12.20
2019-05-03T10:14:24.315Z,12.58
2019-05-03T10:17:10.417Z,10.93
2019-05-03T10:19:40.513Z,12.98
2019-05-03T10:22:09.707Z,13.50
2019-05-03T10:24:38.221Z,12.70
2019-05-03T10:27:06.761Z,14.73
2019-05-03T10:29:35.222Z,11.80
2019-05-03T10:32:11.487Z,14.80
2019-05-03T10:37:10.932Z,13.98
2019-05-03T10:39:39.496Z,13.22
2019-05-03T10:42:07.951Z,13.28
2019-05-03T10:44:36.481Z,16.65
2019-05-03T10:47:05.623Z,14.55
2019-05-03T10:49:35.204Z,12.47
2019-05-03T10:52:05.784Z,13.35
2019-05-03T10:54:35.787Z,9.53
2019-05-03T10:57:06.461Z,16.00
2019-05-03T10:59:35.580Z,10.23
2019-05-03T11:02:05.937Z,11.97
2019-05-03T11:04:35.661Z,8.83
2019-05-03T11:07:05.537Z,7.83
2019-05-03T11:09:47.939Z,7.75
2019-05-03T11:12:05.403Z,8.15
2019-05-03T11:14:35.013Z,8.33
2019-05-03T11:17:05.707Z,8.85
2019-05-03T11:19:34.830Z,9.60
2019-05-03T11:22:05.263Z,11.80
2019-05-03T11:24:34.874Z,6.00
2019-05-03T11:27:05.400Z,7.55
2019-05-03T11:29:35.594Z,6.35
2019-05-03T11:32:10.587Z,9.33
2019-05-03T11:34:46.752Z,6.80
2019-05-03T11:37:19.650Z,5.85
2019-05-03T11:39:48.269Z,9.78
2019-05-03T11:42:18.603Z,11.90
2019-05-03T11:44:46.936Z,8.05
2019-05-03T11:47:15.391Z,7.25
2019-05-03T11:49:45.462Z,6.50
2019-05-03T11:52:15.882Z,7.25
2019-05-03T11:54:45.233Z,8.50
2019-05-03T11:57:27.686Z,7.78
2019-05-03T11:59:56.304Z,9.00
2019-05-03T12:02:29.376Z,7.08
2019-05-03T12:04:59.584Z,6.60
2019-05-03T12:07:39.639Z,7.58
2019-05-03T12:10:17.636Z,10.35
2019-05-03T12:12:37.693Z,5.90
2019-05-03T12:15:07.095Z,8.10
2019-05-03T12:17:51.962Z,9.93
2019-05-03T12:20:17.259Z,12.23
2019-05-03T12:22:46.519Z,9.40
2019-05-03T12:25:16.726Z,7.42
2019-05-03T12:27:44.754Z,12.13
2019-05-03T12:30:15.305Z,9.85
2019-05-03T12:32:43.936Z,11.00
2019-05-03T12:35:15.162Z,10.50
2019-05-03T12:37:43.023Z,9.95
2019-05-03T12:40:14.773Z,8.20
2019-05-03T12:42:45.267Z,9.85
2019-05-03T12:45:15.217Z,8.55
2019-05-03T12:47:45.310Z,6.37
2019-05-03T12:50:15.669Z,6.05
2019-05-03T12:52:50.505Z,10.13
2019-05-03T12:55:15.391Z,9.38
2019-05-03T12:57:45.772Z,8.15
2019-05-03T13:00:25.913Z,7.25
2019-05-03T13:02:56.077Z,8.55
2019-05-03T13:05:24.971Z,11.33
2019-05-03T13:08:11.697Z,9.55
2019-05-03T13:13:07.895Z,10.15
2019-05-03T13:15:36.390Z,12.95
2019-05-03T13:18:05.045Z,14.70
2019-05-03T13:20:35.872Z,8.68
2019-05-03T13:23:05.424Z,10.80
2019-05-03T13:25:35.582Z,9.25
2019-05-03T13:28:05.495Z,7.95
2019-05-03T13:30:34.585Z,6.67
2019-05-03T13:33:05.597Z,12.55
2019-05-03T13:35:35.151Z,11.15
2019-05-03T13:38:03.690Z,8.65
2019-05-03T13:40:32.218Z,14.63
2019-05-03T13:43:03.915Z,12.15
2019-05-03T13:45:30.894Z,8.85
2019-05-03T13:47:59.346Z,12.00
2019-05-03T13:50:27.805Z,11.55
2019-05-03T13:52:56.319Z,9.25
2019-05-03T13:55:24.836Z,9.33
2019-05-03T13:57:54.856Z,12.40
2019-05-03T14:00:24.686Z,11.88
2019-05-03T14:02:53.272Z,7.22
2019-05-03T14:05:21.728Z,10.95
2019-05-03T14:07:50.203Z,8.65
2019-05-03T14:10:18.973Z,14.13
2019-05-03T14:12:47.423Z,6.75
2019-05-03T14:15:16.568Z,9.05
2019-05-03T14:17:45.036Z,10.82
2019-05-03T14:20:27.925Z,13.10
2019-05-03T14:22:56.376Z,15.60
2019-05-03T14:25:24.843Z,10.72
2019-05-03T14:27:54.990Z,15.98
2019-05-03T14:30:25.301Z,9.20
2019-05-03T14:32:55.715Z,16.35
2019-05-03T14:35:25.100Z,13.18
2019-05-03T14:37:55.124Z,12.95
2019-05-03T14:40:25.080Z,10.82
2019-05-03T14:42:55.495Z,12.68
2019-05-03T14:45:25.563Z,8.80
2019-05-03T14:47:54.720Z,12.15
2019-05-03T14:50:25.470Z,12.73
2019-05-03T14:52:57.109Z,11.75
2019-05-03T14:55:36.088Z,11.55
2019-05-03T14:58:22.671Z,16.52
2019-05-03T15:03:30.112Z,14.25
2019-05-03T15:05:58.643Z,12.75
2019-05-03T15:08:27.313Z,16.85
2019-05-03T15:10:55.843Z,11.70
2019-05-03T15:13:25.153Z,13.05
2019-05-03T15:15:54.771Z,13.22
2019-05-03T15:18:25.392Z,14.05
2019-05-03T15:20:54.919Z,14.93
2019-05-03T15:23:25.491Z,12.58
2019-05-03T15:25:54.587Z,15.45
2019-05-03T15:28:25.091Z,10.75
2019-05-03T15:30:55.364Z,11.35
2019-05-03T15:33:23.681Z,12.05
2019-05-03T15:35:52.136Z,11.40
2019-05-03T15:38:20.652Z,14.30
2019-05-03T15:40:49.276Z,16.05
2019-05-03T15:43:19.368Z,14.03
2019-05-03T15:45:54.399Z,11.93
2019-05-03T15:48:27.022Z,13.08
2019-05-03T15:50:55.528Z,12.65
2019-05-03T15:53:24.683Z,13.32
2019-05-03T15:55:55.053Z,14.13
2019-05-03T15:58:24.877Z,15.65
2019-05-03T16:00:55.375Z,14.13
2019-05-03T16:03:25.261Z,18.65
2019-05-03T16:05:55.608Z,14.15
2019-05-03T16:08:24.789Z,12.88
2019-05-03T16:10:54.890Z,11.03
2019-05-03T16:13:25.305Z,12.68
2019-05-03T16:15:55.284Z,11.85
2019-05-03T16:18:24.551Z,15.95
2019-05-03T16:20:54.652Z,15.68
2019-05-03T16:23:24.996Z,10.93
2019-05-03T16:25:54.377Z,10.70
2019-05-03T16:28:31.130Z,12.93
2019-05-03T16:31:01.224Z,11.43
2019-05-03T16:33:29.688Z,10.53
2019-05-03T16:35:58.180Z,12.47
2019-05-03T16:38:26.671Z,13.98
2019-05-03T16:40:55.131Z,12.40
2019-05-03T16:43:25.482Z,14.93
2019-05-03T16:45:55.159Z,13.98
2019-05-03T16:48:24.721Z,15.78
2019-05-03T16:50:53.388Z,15.80
2019-05-03T16:53:21.987Z,15.55
2019-05-03T16:55:50.514Z,11.90
2019-05-03T16:58:19.005Z,14.50
2019-05-03T17:00:47.536Z,15.68
2019-05-03T17:03:17.636Z,14.43
2019-05-03T17:05:53.626Z,11.63
2019-05-03T17:08:26.360Z,15.65
2019-05-03T17:10:57.038Z,13.83
2019-05-03T17:13:25.739Z,12.58
2019-05-03T17:15:54.349Z,12.45
2019-05-03T17:18:24.636Z,14.73
2019-05-03T17:20:54.718Z,14.00
2019-05-03T17:23:24.615Z,10.68
2019-05-03T17:25:53.464Z,11.88
2019-05-03T17:28:22.018Z,12.80
2019-05-03T17:30:50.488Z,12.82
2019-05-03T17:33:18.934Z,13.05
2019-05-03T17:35:47.434Z,13.32
2019-05-03T17:38:15.907Z,13.20
2019-05-03T17:40:51.641Z,12.70
2019-05-03T17:43:30.971Z,14.98
2019-05-03T17:46:01.176Z,12.33
2019-05-03T17:48:29.788Z,13.40
2019-05-03T17:50:58.237Z,13.62
2019-05-03T17:53:31.083Z,10.85
2019-05-03T17:56:10.002Z,14.93
2019-05-03T17:58:44.355Z,12.28
2019-05-03T18:01:27.458Z,11.43
2019-05-03T18:04:06.691Z,12.80
2019-05-03T18:06:32.393Z,12.30
2019-05-03T18:09:08.503Z,12.58
2019-05-03T18:14:06.347Z,15.83
2019-05-03T18:16:35.046Z,12.23
2019-05-03T18:19:05.198Z,12.40
2019-05-03T18:21:34.013Z,15.38
2019-05-03T18:24:02.515Z,11.57
2019-05-03T18:26:30.986Z,12.88
2019-05-03T18:28:59.508Z,18.20
2019-05-03T18:31:27.987Z,12.03
2019-05-03T18:33:56.443Z,14.47
2019-05-03T18:36:25.367Z,11.65
2019-05-03T18:38:55.210Z,14.53
2019-05-03T18:41:25.526Z,10.58
2019-05-03T18:43:58.525Z,11.10
2019-05-03T18:46:28.629Z,10.18
2019-05-03T18:48:57.080Z,12.28
2019-05-03T18:51:25.580Z,12.43
2019-05-03T18:53:54.401Z,13.05
2019-05-03T18:56:25.044Z,14.35
2019-05-03T18:58:54.387Z,15.38
2019-05-03T19:01:25.168Z,14.38
2019-05-03T19:03:55.438Z,11.70
2019-05-03T19:06:24.180Z,14.98
2019-05-03T19:09:10.544Z,16.15
2019-05-03T19:11:40.684Z,14.90
2019-05-03T19:14:10.978Z,13.22
2019-05-03T19:16:45.518Z,14.53
2019-05-03T19:19:15.878Z,17.50
2019-05-03T19:21:44.498Z,13.38
2019-05-03T19:24:15.097Z,17.20
2019-05-03T19:26:45.083Z,16.27
2019-05-03T19:29:14.923Z,18.12
2019-05-03T19:31:44.906Z,16.07
2019-05-03T19:34:15.473Z,15.75
2019-05-03T19:36:45.504Z,17.20
2019-05-03T19:39:14.421Z,15.70
2019-05-03T19:41:44.797Z,16.60
2019-05-03T19:44:15.013Z,16.67
2019-05-03T19:46:44.510Z,19.75
2019-05-03T19:49:13.180Z,14.28
2019-05-03T19:51:41.630Z,19.67
2019-05-03T19:54:10.167Z,15.38
2019-05-03T19:56:38.669Z,16.95
2019-05-03T19:59:08.837Z,18.90
2019-05-03T20:01:51.047Z,15.68
2019-05-03T20:04:27.043Z,19.27
2019-05-03T20:07:06.058Z,16.82
2019-05-03T20:09:35.027Z,19.17
2019-05-03T20:12:04.601Z,18.35
2019-05-03T20:14:33.270Z,19.27
2019-05-03T20:17:04.076Z,19.35
2019-05-03T20:19:31.920Z,18.73
2019-05-03T20:22:00.423Z,17.48
2019-05-03T20:24:30.844Z,18.20
2019-05-03T20:26:59.071Z,19.07
2019-05-03T20:29:27.585Z,22.32
2019-05-03T20:31:56.047Z,21.33
2019-05-03T20:34:24.871Z,20.65
2019-05-03T20:36:54.849Z,21.02
2019-05-03T20:39:25.263Z,19.90
2019-05-03T20:41:55.018Z,17.17
2019-05-03T20:44:25.349Z,16.32
2019-05-03T20:47:04.547Z,15.60
2019-05-03T20:49:34.727Z,15.38
2019-05-03T20:52:03.659Z,14.87
2019-05-03T20:54:32.104Z,11.90
2019-05-03T20:57:00.608Z,14.23
2019-05-03T20:59:41.944Z,14.15
2019-05-03T21:01:59.496Z,12.75
2019-05-03T21:04:27.982Z,15.08
2019-05-03T21:06:56.473Z,16.02
2019-05-03T21:09:24.952Z,13.45
2019-05-03T21:11:55.173Z,13.88
2019-05-03T21:14:24.495Z,13.43
2019-05-03T21:17:10.940Z,13.88
2019-05-03T21:19:49.841Z,12.78
2019-05-03T21:22:19.991Z,13.65
2019-05-03T21:24:50.087Z,13.68
2019-05-03T21:27:18.536Z,12.58
2019-05-03T21:29:51.414Z,16.77
2019-05-03T21:32:20.093Z,14.90
2019-05-03T21:34:48.912Z,14.03
2019-05-03T21:37:17.469Z,12.33
2019-05-03T21:39:45.917Z,14.23
2019-05-03T21:42:15.167Z,13.53
2019-05-03T21:44:44.798Z,16.23
2019-05-03T21:47:17.996Z,18.98
2019-05-03T21:49:47.863Z,14.85
2019-05-03T21:52:16.407Z,12.10
2019-05-03T21:54:45.137Z,12.78
2019-05-03T21:57:14.293Z,11.57
2019-05-03T21:59:44.778Z,15.85
2019-05-03T22:02:15.384Z,13.90
2019-05-03T22:04:44.424Z,17.50
2019-05-03T22:07:13.063Z,16.50
2019-05-03T22:09:41.535Z,15.72
2019-05-03T22:12:10.018Z,17.23
2019-05-03T22:14:42.834Z,15.60
2019-05-03T22:17:15.438Z,20.60
2019-05-03T22:19:45.657Z,18.85
2019-05-03T22:22:25.558Z,19.07
2019-05-03T22:24:56.252Z,22.27
2019-05-03T22:27:25.182Z,21.17
2019-05-03T22:29:54.592Z,24.82
2019-05-03T22:32:24.472Z,24.70
2019-05-03T22:34:53.498Z,23.10
2019-05-03T22:37:21.975Z,21.57
2019-05-03T22:39:50.430Z,21.20
2019-05-03T22:42:18.899Z,21.27
2019-05-03T22:44:47.389Z,20.65
2019-05-03T22:47:15.851Z,19.12
2019-05-03T22:49:45.673Z,19.25
2019-05-03T22:52:15.445Z,20.72
2019-05-03T22:54:45.150Z,18.02
2019-05-03T22:57:15.334Z,17.82
2019-05-03T22:59:44.919Z,16.27
2019-05-03T23:02:16.835Z,17.42
2019-05-03T23:04:44.813Z,14.68
2019-05-03T23:07:14.848Z,18.32
2019-05-03T23:09:44.673Z,16.70
2019-05-03T23:12:13.347Z,15.13
2019-05-03T23:14:41.827Z,13.48
2019-05-03T23:17:10.267Z,10.00
2019-05-03T23:19:40.359Z,10.25
2019-05-03T23:22:10.496Z,13.72
2019-05-03T23:24:38.956Z,10.32
2019-05-03T23:27:07.468Z,10.08
2019-05-03T23:29:35.944Z,7.60
2019-05-03T23:32:04.822Z,8.23
2019-05-03T23:34:35.087Z,7.67
2019-05-03T23:37:05.484Z,7.70
2019-05-03T23:39:33.804Z,7.15
2019-05-03T23:42:04.824Z,8.08
2019-05-03T23:44:35.120Z,10.03
2019-05-03T23:47:08.505Z,8.78
2019-05-03T23:49:36.953Z,9.70
2019-05-03T23:52:25.645Z,10.82
2019-05-03T23:54:56.054Z,7.95
2019-05-03T23:57:25.183Z,7.72
2019-05-03T23:59:54.972Z,7.55
